createdAt,value
2018-10-11T00:02:20.607Z,7.65
2018-10-11T00:04:48.550Z,7.67
2018-10-11T00:07:16.543Z,7.72
2018-10-11T00:09:44.417Z,7.77
2018-10-11T00:12:12.317Z,7.80
2018-10-11T00:14:40.269Z,7.85
2018-10-11T00:17:08.219Z,7.87
2018-10-11T00:19:36.219Z,7.87
2018-10-11T00:22:04.180Z,7.87
2018-10-11T00:24:32.090Z,7.87
2018-10-11T00:26:59.827Z,7.87
2018-10-11T00:29:27.557Z,7.89
2018-10-11T00:31:55.291Z,7.91
2018-10-11T00:34:23.247Z,7.91
2018-10-11T00:36:52.080Z,7.83
2018-10-11T00:39:19.869Z,7.92
2018-10-11T00:41:47.611Z,7.93
2018-10-11T00:44:16.078Z,7.97
2018-10-11T00:46:45.286Z,8.01
2018-10-11T00:49:13.296Z,8.04
2018-10-11T00:51:41.485Z,8.05
2018-10-11T00:54:09.704Z,8.04
2018-10-11T00:56:37.667Z,8.06
2018-10-11T00:59:05.766Z,8.05
2018-10-11T01:01:33.469Z,8.04
2018-10-11T01:04:01.206Z,8.02
2018-10-11T01:06:29.000Z,7.98
2018-10-11T01:08:57.417Z,7.96
2018-10-11T01:11:25.139Z,7.96
2018-10-11T01:13:52.881Z,7.92
2018-10-11T01:16:20.665Z,7.87
2018-10-11T01:18:48.359Z,7.85
2018-10-11T01:21:16.185Z,7.83
2018-10-11T01:23:43.907Z,7.80
2018-10-11T01:26:11.649Z,7.76
2018-10-11T01:28:39.373Z,7.72
2018-10-11T01:31:12.965Z,7.69
2018-10-11T01:33:40.729Z,7.64
2018-10-11T01:36:08.479Z,7.61
2018-10-11T01:38:36.208Z,7.58
2018-10-11T01:41:04.068Z,7.53
2018-10-11T01:43:31.780Z,7.48
2018-10-11T01:45:59.558Z,7.44
2018-10-11T01:48:27.389Z,7.38
2018-10-11T01:50:55.136Z,7.32
2018-10-11T01:53:22.931Z,7.28
2018-10-11T01:55:50.628Z,7.23
2018-10-11T01:58:18.948Z,7.19
2018-10-11T02:00:46.750Z,7.13
2018-10-11T02:03:14.481Z,7.05
2018-10-11T02:05:42.272Z,6.99
2018-10-11T02:08:09.971Z,6.95
2018-10-11T02:10:37.701Z,6.94
2018-10-11T02:13:05.830Z,6.94
2018-10-11T02:15:33.534Z,6.90
2018-10-11T02:18:01.234Z,6.87
2018-10-11T02:20:28.967Z,6.82
2018-10-11T02:22:56.962Z,6.75
2018-10-11T02:25:24.669Z,6.72
2018-10-11T02:27:52.409Z,6.71
2018-10-11T02:30:20.120Z,6.70
2018-10-11T02:32:47.844Z,6.65
2018-10-11T02:35:15.558Z,6.62
2018-10-11T02:37:43.321Z,6.58
2018-10-11T02:40:11.482Z,6.54
2018-10-11T02:42:39.214Z,6.51
2018-10-11T02:45:07.493Z,6.48
2018-10-11T02:47:35.233Z,6.45
2018-10-11T02:50:03.030Z,6.42
2018-10-11T02:52:30.735Z,6.40
2018-10-11T02:54:58.547Z,6.35
2018-10-11T02:57:37.603Z,6.34
2018-10-11T03:00:05.536Z,6.31
2018-10-11T03:02:34.792Z,6.24
2018-10-11T03:05:02.709Z,6.22
2018-10-11T03:07:30.607Z,6.22
2018-10-11T03:09:58.700Z,6.24
2018-10-11T03:12:26.431Z,6.24
2018-10-11T03:14:54.255Z,6.24
2018-10-11T03:17:22.038Z,6.24
2018-10-11T03:19:49.831Z,6.21
2018-10-11T03:22:17.595Z,6.20
2018-10-11T03:24:45.408Z,6.22
2018-10-11T03:27:13.169Z,6.22
2018-10-11T03:29:40.863Z,6.22
2018-10-11T03:32:08.621Z,6.21
2018-10-11T03:34:36.463Z,6.18
2018-10-11T03:37:04.136Z,6.19
2018-10-11T03:39:31.848Z,6.22
2018-10-11T03:42:00.214Z,6.23
2018-10-11T03:44:28.460Z,6.24
2018-10-11T03:46:56.284Z,6.24
2018-10-11T03:49:24.293Z,6.25
2018-10-11T03:51:52.026Z,6.26
2018-10-11T03:54:19.757Z,6.26
2018-10-11T03:56:47.456Z,6.24
2018-10-11T03:59:15.279Z,6.21
2018-10-11T04:01:43.030Z,6.19
2018-10-11T04:04:10.766Z,6.19
2018-10-11T04:06:38.552Z,6.19
2018-10-11T04:09:06.890Z,6.20
2018-10-11T04:11:34.591Z,6.23
2018-10-11T04:14:02.395Z,6.23
2018-10-11T04:16:30.170Z,6.20
2018-10-11T04:18:57.903Z,6.17
2018-10-11T04:21:25.583Z,6.18
2018-10-11T04:23:53.324Z,6.19
2018-10-11T04:26:21.055Z,6.19
2018-10-11T04:28:48.759Z,6.15
2018-10-11T04:31:16.493Z,6.15
2018-10-11T04:33:44.192Z,6.11
2018-10-11T04:36:12.746Z,6.07
2018-10-11T04:38:41.402Z,5.97
2018-10-11T04:41:09.145Z,5.87
2018-10-11T04:43:36.881Z,5.81
2018-10-11T04:46:04.678Z,5.76
2018-10-11T04:48:32.395Z,5.69
2018-10-11T04:51:00.113Z,5.60
2018-10-11T04:53:27.865Z,5.51
2018-10-11T04:55:55.615Z,5.30
2018-10-11T04:58:23.385Z,5.12
2018-10-11T05:00:51.151Z,5.03
2018-10-11T05:03:18.905Z,4.92
2018-10-11T05:05:46.647Z,4.86
2018-10-11T05:08:14.402Z,4.76
2018-10-11T05:10:43.210Z,4.58
2018-10-11T05:13:11.117Z,4.58
2018-10-11T05:15:40.282Z,4.50
2018-10-11T05:18:08.697Z,4.43
2018-10-11T05:20:36.511Z,4.39
2018-10-11T05:23:04.301Z,4.29
2018-10-11T05:25:33.021Z,4.21
2018-10-11T05:28:00.835Z,4.15
2018-10-11T05:30:28.615Z,4.13
2018-10-11T05:32:56.992Z,4.00
2018-10-11T05:35:24.817Z,3.87
2018-10-11T05:37:52.894Z,3.73
2018-10-11T05:40:20.729Z,3.74
2018-10-11T05:42:48.744Z,3.67
2018-10-11T05:45:19.236Z,3.57
2018-10-11T05:47:47.617Z,3.49
2018-10-11T05:50:15.570Z,3.44
2018-10-11T05:52:44.077Z,3.43
2018-10-11T05:55:12.269Z,3.41
2018-10-11T05:57:40.353Z,3.39
2018-10-11T06:00:09.324Z,3.36
2018-10-11T06:02:47.144Z,3.35
2018-10-11T06:05:14.944Z,3.35
2018-10-11T06:07:42.780Z,3.37
2018-10-11T06:10:10.682Z,3.39
2018-10-11T06:12:38.610Z,3.42
2018-10-11T06:15:06.706Z,3.43
2018-10-11T06:17:34.607Z,3.44
2018-10-11T06:20:02.489Z,3.45
2018-10-11T06:22:30.397Z,3.48
2018-10-11T06:24:58.424Z,3.48
2018-10-11T06:27:26.370Z,3.50
2018-10-11T06:29:54.230Z,3.52
2018-10-11T06:32:22.270Z,3.55
2018-10-11T06:34:50.202Z,3.61
2018-10-11T06:37:18.154Z,3.65
2018-10-11T06:39:46.119Z,3.70
2018-10-11T06:42:14.054Z,3.78
2018-10-11T06:44:41.934Z,3.88
2018-10-11T06:47:09.807Z,3.96
2018-10-11T06:49:37.742Z,4.00
2018-10-11T06:52:05.627Z,4.02
2018-10-11T06:54:33.565Z,4.08
2018-10-11T06:57:01.346Z,4.14
2018-10-11T06:59:29.209Z,4.24
2018-10-11T07:01:57.035Z,4.31
2018-10-11T07:04:24.803Z,4.40
2018-10-11T07:06:52.613Z,4.53
2018-10-11T07:09:20.486Z,4.76
2018-10-11T07:11:48.555Z,4.95
2018-10-11T07:14:16.412Z,5.11
2018-10-11T07:16:44.143Z,5.31
2018-10-11T07:19:12.019Z,5.50
2018-10-11T07:21:39.848Z,5.61
2018-10-11T07:24:07.636Z,5.83
2018-10-11T07:26:35.439Z,6.00
2018-10-11T07:29:03.311Z,6.30
2018-10-11T07:31:31.115Z,6.65
2018-10-11T07:33:58.944Z,7.05
2018-10-11T07:36:26.717Z,7.30
2018-10-11T07:38:54.478Z,7.67
2018-10-11T07:41:22.318Z,8.11
2018-10-11T07:43:50.069Z,8.44
2018-10-11T07:46:17.865Z,8.74
2018-10-11T07:48:45.693Z,8.99
2018-10-11T07:51:13.500Z,9.21
2018-10-11T07:53:41.249Z,9.62
2018-10-11T07:56:09.113Z,10.00
2018-10-11T07:58:36.873Z,10.24
2018-10-11T08:01:04.668Z,10.40
2018-10-11T08:03:32.468Z,10.63
2018-10-11T08:06:01.224Z,10.83
2018-10-11T08:08:29.060Z,10.98
2018-10-11T08:10:56.907Z,11.10
2018-10-11T08:13:24.667Z,11.19
2018-10-11T08:15:52.405Z,11.46
2018-10-11T08:18:20.226Z,11.70
2018-10-11T08:20:47.989Z,11.83
2018-10-11T08:23:15.780Z,12.06
2018-10-11T08:25:44.047Z,12.39
2018-10-11T08:28:11.333Z,12.57
2018-10-11T08:30:39.104Z,12.68
2018-10-11T08:33:06.886Z,12.84
2018-10-11T08:35:34.640Z,12.76
2018-10-11T08:38:02.504Z,12.66
2018-10-11T08:40:30.190Z,12.70
2018-10-11T08:42:57.941Z,12.82
2018-10-11T08:45:25.708Z,13.11
2018-10-11T08:47:53.499Z,13.37
2018-10-11T08:50:21.323Z,13.54
2018-10-11T08:52:49.034Z,13.73
2018-10-11T08:55:16.833Z,13.93
2018-10-11T08:57:44.759Z,14.13
2018-10-11T09:00:12.526Z,14.12
2018-10-11T09:02:40.287Z,14.35
2018-10-11T09:05:08.178Z,14.55
2018-10-11T09:07:35.946Z,14.44
2018-10-11T09:10:03.913Z,14.60
2018-10-11T09:12:31.713Z,14.74
2018-10-11T09:14:59.456Z,14.70
2018-10-11T09:17:27.237Z,14.90
2018-10-11T09:19:54.999Z,15.07
2018-10-11T09:22:22.761Z,15.25
2018-10-11T09:24:50.526Z,15.40
2018-10-11T09:27:18.294Z,15.57
2018-10-11T09:29:46.104Z,15.67
2018-10-11T09:32:13.837Z,15.85
2018-10-11T09:34:41.616Z,16.08
2018-10-11T09:37:09.413Z,16.27
2018-10-11T09:39:37.138Z,16.28
2018-10-11T09:42:04.916Z,16.55
2018-10-11T09:44:32.785Z,16.76
2018-10-11T09:47:00.541Z,16.92
2018-10-11T09:49:28.261Z,17.07
2018-10-11T09:51:56.008Z,17.00
2018-10-11T09:54:23.798Z,17.09
2018-10-11T09:57:24.721Z,17.32
2018-10-11T09:59:52.559Z,17.28
2018-10-11T10:02:20.878Z,17.25
2018-10-11T10:04:49.825Z,17.35
2018-10-11T10:07:17.640Z,17.64
2018-10-11T10:09:46.001Z,17.83
2018-10-11T10:12:14.095Z,17.78
2018-10-11T10:14:42.685Z,17.77
2018-10-11T10:17:10.547Z,17.79
2018-10-11T10:19:38.307Z,17.83
2018-10-11T10:22:06.181Z,17.90
2018-10-11T10:24:34.040Z,17.97
2018-10-11T10:27:02.129Z,17.93
2018-10-11T10:29:29.898Z,17.76
2018-10-11T10:31:58.157Z,17.94
2018-10-11T10:34:26.163Z,18.05
2018-10-11T10:36:53.967Z,18.26
2018-10-11T10:39:22.009Z,18.23
2018-10-11T10:41:49.743Z,18.16
2018-10-11T10:44:17.512Z,18.13
2018-10-11T10:46:45.316Z,18.10
2018-10-11T10:49:13.148Z,18.23
2018-10-11T10:51:40.891Z,18.20
2018-10-11T10:54:14.405Z,18.34
2018-10-11T10:56:42.134Z,18.30
2018-10-11T10:59:09.850Z,18.29
2018-10-11T11:01:37.630Z,18.20
2018-10-11T11:04:05.380Z,18.33
2018-10-11T11:06:33.142Z,18.41
2018-10-11T11:09:00.901Z,18.49
2018-10-11T11:11:28.680Z,18.63
2018-10-11T11:13:56.428Z,18.42
2018-10-11T11:16:24.216Z,18.48
2018-10-11T11:18:52.940Z,18.51
2018-10-11T11:21:20.690Z,18.48
2018-10-11T11:23:48.423Z,18.11
2018-10-11T11:26:16.236Z,18.10
2018-10-11T11:28:43.983Z,17.92
2018-10-11T11:31:11.787Z,17.70
2018-10-11T11:33:39.526Z,17.52
2018-10-11T11:36:07.260Z,17.31
2018-10-11T11:38:35.009Z,17.17
2018-10-11T11:41:02.764Z,17.06
2018-10-11T11:43:30.552Z,16.86
2018-10-11T11:45:58.435Z,16.81
2018-10-11T11:48:26.212Z,16.71
2018-10-11T11:50:53.959Z,16.62
2018-10-11T11:53:21.687Z,16.48
2018-10-11T11:55:49.473Z,16.14
2018-10-11T11:58:17.214Z,16.01
2018-10-11T12:00:45.072Z,16.02
2018-10-11T12:03:12.818Z,15.72
2018-10-11T12:05:40.601Z,15.55
2018-10-11T12:08:08.408Z,15.38
2018-10-11T12:10:36.247Z,15.07
2018-10-11T12:13:07.305Z,14.79
2018-10-11T12:15:35.758Z,14.77
2018-10-11T12:18:04.438Z,14.70
2018-10-11T12:20:34.067Z,14.65
2018-10-11T12:23:03.047Z,14.57
2018-10-11T12:25:31.063Z,14.44
2018-10-11T12:27:58.803Z,14.22
2018-10-11T12:30:26.545Z,14.13
2018-10-11T12:32:54.369Z,13.98
2018-10-11T12:35:23.173Z,13.71
2018-10-11T12:37:50.999Z,13.64
2018-10-11T12:40:18.980Z,13.64
2018-10-11T12:42:46.736Z,13.59
2018-10-11T12:45:15.181Z,13.51
2018-10-11T12:47:42.993Z,13.50
2018-10-11T12:50:11.438Z,13.41
2018-10-11T12:52:39.318Z,13.29
2018-10-11T12:55:07.717Z,13.30
2018-10-11T12:57:35.380Z,13.31
2018-10-11T13:00:03.370Z,13.36
2018-10-11T13:02:31.127Z,13.32
2018-10-11T13:04:58.874Z,13.31
2018-10-11T13:07:26.649Z,13.30
2018-10-11T13:09:54.377Z,13.09
2018-10-11T13:12:22.100Z,13.01
2018-10-11T13:14:49.857Z,12.80
2018-10-11T13:17:17.627Z,12.61
2018-10-11T13:19:45.340Z,12.48
2018-10-11T13:22:13.233Z,12.40
2018-10-11T13:24:45.997Z,12.30
2018-10-11T13:27:08.859Z,12.18
2018-10-11T13:29:36.643Z,12.11
2018-10-11T13:32:04.404Z,11.90
2018-10-11T13:34:32.250Z,11.85
2018-10-11T13:37:00.006Z,11.62
2018-10-11T13:39:27.752Z,11.48
2018-10-11T13:41:55.517Z,11.41
2018-10-11T13:44:23.311Z,11.29
2018-10-11T13:46:51.066Z,11.07
2018-10-11T13:49:18.909Z,10.93
2018-10-11T13:51:46.695Z,10.83
2018-10-11T13:54:16.923Z,10.70
2018-10-11T13:56:45.082Z,10.58
2018-10-11T13:59:14.916Z,10.52
2018-10-11T14:01:40.712Z,10.49
2018-10-11T14:04:08.516Z,10.54
2018-10-11T14:06:36.327Z,10.41
2018-10-11T14:09:06.971Z,10.27
2018-10-11T14:11:34.771Z,10.23
2018-10-11T14:14:02.594Z,10.14
2018-10-11T14:16:30.359Z,10.08
2018-10-11T14:18:58.134Z,10.04
2018-10-11T14:21:25.932Z,9.92
2018-10-11T14:23:53.849Z,9.95
2018-10-11T14:26:21.487Z,9.96
2018-10-11T14:28:49.638Z,9.96
2018-10-11T14:31:17.416Z,9.97
2018-10-11T14:33:45.198Z,9.87
2018-10-11T14:36:13.029Z,9.84
2018-10-11T14:38:40.842Z,9.79
2018-10-11T14:41:08.629Z,9.72
2018-10-11T14:43:36.387Z,9.72
2018-10-11T14:46:04.257Z,9.70
2018-10-11T14:48:32.038Z,9.68
2018-10-11T14:50:59.871Z,9.63
2018-10-11T14:53:27.631Z,9.59
2018-10-11T14:55:55.385Z,9.59
2018-10-11T14:58:23.134Z,9.57
2018-10-11T15:00:50.929Z,9.53
2018-10-11T15:03:18.749Z,9.55
2018-10-11T15:05:46.488Z,9.49
2018-10-11T15:08:14.276Z,9.44
2018-10-11T15:10:42.086Z,9.41
2018-10-11T15:13:09.803Z,9.39
2018-10-11T15:15:37.634Z,9.37
2018-10-11T15:18:05.840Z,9.34
2018-10-11T15:20:33.594Z,9.28
2018-10-11T15:23:01.388Z,9.25
2018-10-11T15:25:29.140Z,9.24
2018-10-11T15:27:56.906Z,9.20
2018-10-11T15:30:24.718Z,9.13
2018-10-11T15:32:52.476Z,9.11
2018-10-11T15:35:20.208Z,9.05
2018-10-11T15:37:48.640Z,9.03
2018-10-11T15:40:16.451Z,9.02
2018-10-11T15:42:44.289Z,8.99
2018-10-11T15:45:12.745Z,8.98
2018-10-11T15:47:40.639Z,8.94
2018-10-11T15:50:08.612Z,8.94
2018-10-11T15:52:36.597Z,8.88
2018-10-11T15:55:04.474Z,8.80
2018-10-11T15:57:32.276Z,8.77
2018-10-11T16:00:00.106Z,8.74
2018-10-11T16:02:27.936Z,8.68
2018-10-11T16:04:55.824Z,8.66
2018-10-11T16:07:23.709Z,8.66
2018-10-11T16:09:51.525Z,8.69
2018-10-11T16:12:19.448Z,8.68
2018-10-11T16:14:47.353Z,8.69
2018-10-11T16:17:15.314Z,8.69
2018-10-11T16:19:43.113Z,8.66
2018-10-11T16:22:10.954Z,8.65
2018-10-11T16:24:38.801Z,8.59
2018-10-11T16:27:06.769Z,8.60
2018-10-11T16:29:34.596Z,8.58
2018-10-11T16:32:02.368Z,8.60
2018-10-11T16:34:30.164Z,8.60
2018-10-11T16:36:58.015Z,8.59
2018-10-11T16:39:25.833Z,8.60
2018-10-11T16:41:53.655Z,8.58
2018-10-11T16:44:21.473Z,8.58
2018-10-11T16:46:49.287Z,8.58
2018-10-11T16:49:17.142Z,8.60
2018-10-11T16:51:44.940Z,8.60
2018-10-11T16:54:12.776Z,8.60
2018-10-11T16:56:41.585Z,8.61
2018-10-11T16:59:10.727Z,8.63
2018-10-11T17:01:38.600Z,8.63
2018-10-11T17:04:06.534Z,8.61
2018-10-11T17:06:34.938Z,8.61
2018-10-11T17:09:04.589Z,8.62
2018-10-11T17:11:33.661Z,8.61
2018-10-11T17:14:01.548Z,8.62
2018-10-11T17:16:29.320Z,8.63
2018-10-11T17:18:57.148Z,8.64
2018-10-11T17:21:24.960Z,8.66
2018-10-11T17:23:52.760Z,8.67
2018-10-11T17:26:21.526Z,8.71
2018-10-11T17:28:49.465Z,8.71
2018-10-11T17:31:17.344Z,8.72
2018-10-11T17:33:45.104Z,8.71
2018-10-11T17:36:13.075Z,8.72
2018-10-11T17:38:40.931Z,8.72
2018-10-11T17:41:08.693Z,8.74
2018-10-11T17:43:36.503Z,8.73
2018-10-11T17:46:04.380Z,8.74
2018-10-11T17:48:32.197Z,8.76
2018-10-11T17:50:59.954Z,8.78
2018-10-11T17:53:27.706Z,8.77
2018-10-11T17:55:55.575Z,8.78
2018-10-11T17:58:23.336Z,8.77
2018-10-11T18:00:51.152Z,8.69
2018-10-11T18:03:20.170Z,8.81
2018-10-11T18:05:48.365Z,8.82
2018-10-11T18:08:17.895Z,8.87
2018-10-11T18:10:46.005Z,8.86
2018-10-11T18:13:14.717Z,8.88
2018-10-11T18:15:44.737Z,8.90
2018-10-11T18:18:13.240Z,8.89
2018-10-11T18:20:41.047Z,8.89
2018-10-11T18:23:10.530Z,8.92
2018-10-11T18:25:39.772Z,8.93
2018-10-11T18:28:07.790Z,8.94
2018-10-11T18:30:35.927Z,8.95
2018-10-11T18:33:03.803Z,8.97
2018-10-11T18:35:32.737Z,8.99
2018-10-11T18:38:00.821Z,9.02
2018-10-11T18:40:28.629Z,9.02
2018-10-11T18:42:56.430Z,9.05
2018-10-11T18:45:24.273Z,9.05
2018-10-11T18:47:52.118Z,9.07
2018-10-11T18:50:19.990Z,9.09
2018-10-11T18:52:47.832Z,9.08
2018-10-11T18:55:15.637Z,9.09
2018-10-11T18:57:43.548Z,9.08
2018-10-11T19:00:11.402Z,9.08
2018-10-11T19:02:39.223Z,9.08
2018-10-11T19:05:10.216Z,9.08
2018-10-11T19:07:38.410Z,9.06
2018-10-11T19:10:06.213Z,9.04
2018-10-11T19:12:34.051Z,9.02
2018-10-11T19:15:01.934Z,9.00
2018-10-11T19:17:29.752Z,8.98
2018-10-11T19:19:57.509Z,8.97
2018-10-11T19:22:26.516Z,8.97
2018-10-11T19:24:54.344Z,8.95
2018-10-11T19:27:22.301Z,8.94
2018-10-11T19:29:50.114Z,8.91
2018-10-11T19:32:18.057Z,8.89
2018-10-11T19:34:45.889Z,8.86
2018-10-11T19:37:13.700Z,8.84
2018-10-11T19:39:41.459Z,8.86
2018-10-11T19:42:09.788Z,8.83
2018-10-11T19:44:37.748Z,8.85
2018-10-11T19:47:05.616Z,8.85
2018-10-11T19:49:33.486Z,8.86
2018-10-11T19:52:01.328Z,8.83
2018-10-11T19:54:29.120Z,8.82
2018-10-11T19:56:56.937Z,8.81
2018-10-11T19:59:25.845Z,8.80
2018-10-11T20:01:53.808Z,8.78
2018-10-11T20:04:21.654Z,8.78
2018-10-11T20:06:49.507Z,8.74
2018-10-11T20:09:18.120Z,8.73
2018-10-11T20:11:45.960Z,8.67
2018-10-11T20:14:13.772Z,8.64
2018-10-11T20:16:41.891Z,8.61
2018-10-11T20:19:09.732Z,8.60
2018-10-11T20:21:37.661Z,8.57
2018-10-11T20:24:08.439Z,8.51
2018-10-11T20:26:36.365Z,8.44
2018-10-11T20:29:04.457Z,8.40
2018-10-11T20:31:33.149Z,8.37
2018-10-11T20:34:01.630Z,8.35
2018-10-11T20:36:29.752Z,8.34
2018-10-11T20:38:57.626Z,8.33
2018-10-11T20:41:25.558Z,8.32
2018-10-11T20:43:53.523Z,8.31
2018-10-11T20:46:21.364Z,8.32
2018-10-11T20:48:49.810Z,8.29
2018-10-11T20:51:17.745Z,8.29
2018-10-11T20:53:45.708Z,8.30
2018-10-11T20:56:13.599Z,8.29
2018-10-11T20:58:41.469Z,8.32
2018-10-11T21:01:09.385Z,8.31
2018-10-11T21:03:37.228Z,8.32
2018-10-11T21:06:05.724Z,8.34
2018-10-11T21:08:33.597Z,8.35
2018-10-11T21:11:01.524Z,8.36
2018-10-11T21:13:29.392Z,8.38
2018-10-11T21:15:57.466Z,8.29
2018-10-11T21:18:25.380Z,8.41
2018-10-11T21:20:53.322Z,8.44
2018-10-11T21:23:21.197Z,8.46
2018-10-11T21:25:49.292Z,8.49
2018-10-11T21:28:17.299Z,8.50
2018-10-11T21:30:45.120Z,8.51
2018-10-11T21:33:13.100Z,8.53
2018-10-11T21:35:41.024Z,8.57
2018-10-11T21:38:08.968Z,8.58
2018-10-11T21:40:36.959Z,8.60
2018-10-11T21:43:04.945Z,8.61
2018-10-11T21:45:32.894Z,8.64
2018-10-11T21:48:00.732Z,8.69
2018-10-11T21:50:28.856Z,8.73
2018-10-11T21:52:56.767Z,8.76
2018-10-11T21:55:24.673Z,8.80
2018-10-11T21:57:52.504Z,8.80
2018-10-11T22:00:24.889Z,8.83
2018-10-11T22:02:53.164Z,8.87
2018-10-11T22:05:21.349Z,8.91
2018-10-11T22:07:50.116Z,8.93
2018-10-11T22:10:18.042Z,8.95
2018-10-11T22:12:45.920Z,9.00
2018-10-11T22:15:13.924Z,9.04
2018-10-11T22:17:41.999Z,9.08
2018-10-11T22:20:09.890Z,9.09
2018-10-11T22:22:37.952Z,9.13
2018-10-11T22:25:06.603Z,9.17
2018-10-11T22:27:34.547Z,9.23
2018-10-11T22:30:02.410Z,9.24
2018-10-11T22:32:30.272Z,9.26
2018-10-11T22:34:58.131Z,9.27
2018-10-11T22:37:26.013Z,9.30
2018-10-11T22:39:53.853Z,9.31
2018-10-11T22:42:21.665Z,9.32
2018-10-11T22:44:49.539Z,9.34
2018-10-11T22:47:17.546Z,9.34
2018-10-11T22:49:45.419Z,9.36
2018-10-11T22:52:13.428Z,9.37
2018-10-11T22:54:41.318Z,9.36
2018-10-11T22:57:09.752Z,9.37
2018-10-11T22:59:38.658Z,9.38
2018-10-11T23:02:06.609Z,9.37
2018-10-11T23:04:34.457Z,9.37
2018-10-11T23:07:02.304Z,9.38
2018-10-11T23:09:30.129Z,9.38
2018-10-11T23:11:58.037Z,9.38
2018-10-11T23:14:25.926Z,9.41
2018-10-11T23:16:53.713Z,9.42
2018-10-11T23:19:21.556Z,9.41
2018-10-11T23:21:49.669Z,9.42
2018-10-11T23:24:17.620Z,9.42
2018-10-11T23:26:45.496Z,9.42
2018-10-11T23:29:13.368Z,9.41
2018-10-11T23:31:41.179Z,9.40
2018-10-11T23:34:09.027Z,9.38
2018-10-11T23:36:36.927Z,9.38
2018-10-11T23:39:07.403Z,9.37
2018-10-11T23:41:35.274Z,9.36
2018-10-11T23:44:03.186Z,9.34
2018-10-11T23:46:31.081Z,9.35
2018-10-11T23:48:58.937Z,9.31
2018-10-11T23:51:26.687Z,9.28
2018-10-11T23:53:54.516Z,9.24
2018-10-11T23:56:22.312Z,9.22
2018-10-11T23:58:50.221Z,9.21
